createdAt,value
2019-03-16T00:03:22.914Z,6.20
2019-03-16T00:05:50.192Z,7.55
2019-03-16T00:08:17.474Z,4.95
2019-03-16T00:10:44.754Z,3.67
2019-03-16T00:13:12.028Z,3.45
2019-03-16T00:15:39.338Z,3.35
2019-03-16T00:18:06.696Z,4.00
2019-03-16T00:20:33.964Z,3.05
2019-03-16T00:23:01.235Z,3.10
2019-03-16T00:25:28.518Z,3.65
2019-03-16T00:27:55.837Z,3.80
2019-03-16T00:30:42.546Z,3.50
2019-03-16T00:33:09.852Z,3.70
2019-03-16T00:35:37.120Z,3.00
2019-03-16T00:38:04.408Z,4.12
2019-03-16T00:40:31.698Z,3.52
2019-03-16T00:42:59.000Z,3.17
2019-03-16T00:45:26.277Z,3.15
2019-03-16T00:47:53.579Z,3.60
2019-03-16T00:50:20.892Z,3.10
2019-03-16T00:52:48.187Z,3.55
2019-03-16T00:55:15.475Z,3.75
2019-03-16T00:57:42.792Z,4.10
2019-03-16T01:06:11.454Z,3.58
2019-03-16T01:08:38.766Z,4.15
2019-03-16T01:11:06.043Z,3.45
2019-03-16T01:13:52.686Z,3.47
2019-03-16T01:16:19.963Z,3.60
2019-03-16T01:18:47.258Z,3.25
2019-03-16T01:21:14.553Z,3.50
2019-03-16T01:23:41.830Z,3.47
2019-03-16T01:26:09.116Z,2.95
2019-03-16T01:28:36.408Z,3.58
2019-03-16T01:31:03.710Z,3.05
2019-03-16T01:33:30.995Z,3.40
2019-03-16T01:35:58.448Z,5.15
2019-03-16T01:38:25.744Z,3.35
2019-03-16T01:40:53.012Z,3.22
2019-03-16T01:43:39.816Z,3.25
2019-03-16T01:48:55.197Z,4.20
2019-03-16T01:51:22.473Z,3.30
2019-03-16T01:53:49.758Z,3.52
2019-03-16T01:56:17.042Z,3.22
2019-03-16T01:58:44.418Z,3.45
2019-03-16T02:01:11.730Z,4.10
2019-03-16T02:03:39.015Z,3.85
2019-03-16T02:06:06.278Z,2.87
2019-03-16T02:08:33.592Z,3.35
2019-03-16T02:11:00.948Z,3.17
2019-03-16T02:13:28.228Z,3.75
2019-03-16T02:15:55.550Z,2.98
2019-03-16T02:18:22.820Z,3.40
2019-03-16T02:20:50.114Z,3.65
2019-03-16T02:23:17.399Z,4.28
2019-03-16T02:26:04.013Z,3.50
2019-03-16T02:28:31.302Z,3.08
2019-03-16T02:30:58.691Z,2.50
2019-03-16T02:33:26.038Z,3.15
2019-03-16T02:35:53.328Z,4.15
2019-03-16T02:38:20.661Z,3.12
2019-03-16T02:40:47.937Z,2.40
2019-03-16T02:43:15.202Z,2.80
2019-03-16T02:45:42.497Z,3.50
2019-03-16T02:48:09.878Z,3.20
2019-03-16T02:50:37.159Z,3.42
2019-03-16T02:53:04.482Z,3.55
2019-03-16T02:55:31.751Z,2.77
2019-03-16T02:57:59.035Z,2.62
2019-03-16T03:00:26.327Z,3.30
2019-03-16T03:02:53.611Z,2.80
2019-03-16T03:05:20.896Z,4.08
2019-03-16T03:07:48.170Z,2.75
2019-03-16T03:10:36.303Z,2.87
2019-03-16T03:13:03.648Z,3.00
2019-03-16T03:15:30.939Z,3.40
2019-03-16T03:17:58.214Z,3.75
2019-03-16T03:20:25.522Z,2.83
2019-03-16T03:22:52.805Z,3.20
2019-03-16T03:25:20.092Z,2.42
2019-03-16T03:27:47.372Z,3.17
2019-03-16T03:30:14.770Z,2.55
2019-03-16T03:32:43.771Z,3.00
2019-03-16T03:35:11.214Z,3.27
2019-03-16T03:37:38.540Z,3.17
2019-03-16T03:42:59.476Z,2.90
2019-03-16T03:45:26.853Z,3.10
2019-03-16T03:47:54.103Z,3.05
2019-03-16T03:50:21.382Z,3.60
2019-03-16T03:52:48.663Z,3.25
2019-03-16T03:55:16.039Z,3.67
2019-03-16T03:57:43.472Z,3.50
2019-03-16T04:00:30.163Z,3.00
2019-03-16T04:02:57.512Z,3.22
2019-03-16T04:05:24.785Z,3.12
2019-03-16T04:07:52.089Z,2.40
2019-03-16T04:10:19.370Z,2.90
2019-03-16T04:12:46.669Z,3.80
2019-03-16T04:15:13.948Z,3.40
2019-03-16T04:17:41.305Z,3.92
2019-03-16T04:23:02.198Z,2.90
2019-03-16T04:28:04.288Z,3.42
2019-03-16T04:30:31.639Z,3.12
2019-03-16T04:32:58.988Z,2.70
2019-03-16T04:35:26.280Z,3.40
2019-03-16T04:37:53.628Z,3.95
2019-03-16T04:40:20.910Z,2.62
2019-03-16T04:42:48.221Z,3.52
2019-03-16T04:45:15.508Z,3.25
2019-03-16T04:47:42.803Z,3.20
2019-03-16T04:50:29.427Z,3.20
2019-03-16T04:52:56.708Z,3.00
2019-03-16T04:55:23.987Z,3.08
2019-03-16T04:57:51.271Z,5.75
2019-03-16T05:00:18.590Z,4.17
2019-03-16T05:02:45.949Z,3.00
2019-03-16T05:05:13.356Z,4.60
2019-03-16T05:07:40.629Z,2.70
2019-03-16T05:10:27.245Z,3.00
2019-03-16T05:12:54.535Z,3.00
2019-03-16T05:15:21.804Z,3.10
2019-03-16T05:17:49.097Z,3.37
2019-03-16T05:20:16.452Z,3.83
2019-03-16T05:22:43.725Z,3.05
2019-03-16T05:25:31.937Z,3.55
2019-03-16T05:27:59.280Z,3.25
2019-03-16T05:30:26.566Z,4.12
2019-03-16T05:32:53.858Z,3.55
2019-03-16T05:35:40.486Z,3.00
2019-03-16T05:38:07.771Z,4.85
2019-03-16T05:40:35.114Z,3.27
2019-03-16T05:43:02.398Z,3.22
2019-03-16T05:45:29.676Z,3.10
2019-03-16T05:47:56.992Z,3.15
2019-03-16T05:50:24.284Z,3.00
2019-03-16T05:52:51.609Z,3.62
2019-03-16T05:55:18.920Z,3.00
2019-03-16T05:57:46.233Z,3.22
2019-03-16T06:00:34.398Z,2.80
2019-03-16T06:03:01.800Z,3.52
2019-03-16T06:05:29.128Z,3.50
2019-03-16T06:07:56.900Z,3.35
2019-03-16T06:10:24.232Z,3.20
2019-03-16T06:12:51.762Z,3.62
2019-03-16T06:15:19.124Z,3.85
2019-03-16T06:17:47.478Z,3.25
2019-03-16T06:20:14.850Z,3.20
2019-03-16T06:22:42.126Z,3.05
2019-03-16T06:25:09.500Z,3.85
2019-03-16T06:27:36.786Z,3.77
2019-03-16T06:30:24.923Z,2.90
2019-03-16T06:33:11.614Z,2.98
2019-03-16T06:35:38.912Z,2.30
2019-03-16T06:38:06.275Z,2.60
2019-03-16T06:40:33.555Z,2.60
2019-03-16T06:43:00.848Z,2.55
2019-03-16T06:45:28.132Z,2.55
2019-03-16T06:47:55.520Z,2.60
2019-03-16T06:50:22.919Z,2.72
2019-03-16T06:52:50.253Z,2.50
2019-03-16T06:55:17.661Z,3.70
2019-03-16T06:57:44.972Z,2.47
2019-03-16T07:00:33.068Z,2.40
2019-03-16T07:03:00.374Z,3.00
2019-03-16T07:05:37.736Z,2.20
2019-03-16T07:07:56.756Z,2.33
2019-03-16T07:10:24.044Z,3.70
2019-03-16T07:12:51.349Z,2.27
2019-03-16T07:15:18.643Z,2.90
2019-03-16T07:17:45.922Z,3.30
2019-03-16T07:20:34.104Z,2.90
2019-03-16T07:23:01.423Z,3.08
2019-03-16T07:25:30.732Z,3.00
2019-03-16T07:27:58.039Z,2.30
2019-03-16T07:30:25.727Z,2.40
2019-03-16T07:35:46.953Z,2.33
2019-03-16T07:40:51.805Z,3.45
2019-03-16T07:43:19.101Z,2.50
2019-03-16T07:45:46.382Z,2.80
2019-03-16T07:50:48.763Z,2.72
2019-03-16T07:53:16.077Z,3.75
2019-03-16T07:55:43.362Z,3.90
2019-03-16T07:58:10.715Z,9.58
2019-03-16T08:00:38.061Z,17.90
2019-03-16T08:03:24.741Z,30.00
2019-03-16T08:05:52.030Z,8.98
2019-03-16T08:08:19.340Z,4.55
2019-03-16T08:10:46.639Z,3.77
2019-03-16T08:13:13.991Z,3.83
2019-03-16T08:15:41.364Z,3.75
2019-03-16T08:18:08.651Z,3.70
2019-03-16T08:20:36.045Z,3.00
2019-03-16T08:23:03.389Z,3.45
2019-03-16T08:25:30.695Z,4.00
2019-03-16T08:27:58.005Z,3.20
2019-03-16T08:30:25.399Z,4.30
2019-03-16T08:32:52.756Z,3.22
2019-03-16T08:35:20.028Z,3.10
2019-03-16T08:37:47.341Z,3.62
2019-03-16T08:40:14.684Z,4.03
2019-03-16T08:42:41.985Z,4.12
2019-03-16T08:48:22.847Z,3.80
2019-03-16T08:50:45.691Z,4.00
2019-03-16T08:53:12.999Z,3.42
2019-03-16T08:55:40.305Z,3.77
2019-03-16T08:58:07.652Z,4.65
2019-03-16T09:00:34.962Z,3.45
2019-03-16T09:03:02.577Z,3.67
2019-03-16T09:05:29.966Z,4.53
2019-03-16T09:07:57.361Z,3.72
2019-03-16T09:10:24.719Z,3.27
2019-03-16T09:12:55.221Z,3.92
2019-03-16T09:15:21.214Z,4.33
2019-03-16T09:17:48.556Z,3.90
2019-03-16T09:20:15.953Z,3.65
2019-03-16T09:22:43.317Z,3.92
2019-03-16T09:25:10.693Z,4.10
2019-03-16T09:27:38.045Z,3.80
2019-03-16T09:30:24.705Z,3.92
2019-03-16T09:32:52.008Z,3.47
2019-03-16T09:35:19.378Z,2.70
2019-03-16T09:37:46.662Z,3.72
2019-03-16T09:40:13.985Z,3.37
2019-03-16T09:42:41.343Z,3.30
2019-03-16T09:48:02.329Z,2.77
2019-03-16T09:50:29.628Z,3.33
2019-03-16T09:52:56.998Z,37.17
2019-03-16T09:55:24.284Z,6.15
2019-03-16T09:57:51.609Z,4.25
2019-03-16T10:00:18.928Z,3.55
2019-03-16T10:02:46.219Z,2.80
2019-03-16T10:05:13.520Z,3.20
2019-03-16T10:07:41.656Z,4.40
2019-03-16T10:13:03.100Z,2.65
2019-03-16T10:15:30.422Z,2.65
2019-03-16T10:17:57.774Z,3.10
2019-03-16T10:20:25.090Z,3.25
2019-03-16T10:22:52.458Z,3.00
2019-03-16T10:25:19.760Z,2.92
2019-03-16T10:27:47.052Z,3.37
2019-03-16T10:33:10.904Z,3.05
2019-03-16T10:35:36.850Z,3.00
2019-03-16T10:38:04.114Z,3.10
2019-03-16T10:43:08.836Z,3.40
2019-03-16T10:45:36.145Z,3.55
2019-03-16T10:48:03.439Z,3.60
2019-03-16T10:50:30.722Z,3.80
2019-03-16T10:52:58.025Z,3.35
2019-03-16T10:55:25.310Z,3.58
2019-03-16T10:57:52.590Z,3.25
2019-03-16T11:00:19.865Z,4.08
2019-03-16T11:02:47.264Z,3.10
2019-03-16T11:05:14.558Z,3.00
2019-03-16T11:07:41.912Z,3.45
2019-03-16T11:13:02.740Z,3.42
2019-03-16T11:18:09.018Z,5.10
2019-03-16T11:20:36.311Z,4.55
2019-03-16T11:23:03.592Z,4.58
2019-03-16T11:25:30.890Z,4.62
2019-03-16T11:27:58.183Z,4.97
2019-03-16T11:30:46.956Z,5.10
2019-03-16T11:33:14.295Z,4.17
2019-03-16T11:35:41.821Z,5.03
2019-03-16T11:41:03.330Z,5.10
2019-03-16T11:43:30.653Z,5.95
2019-03-16T11:45:57.989Z,5.30
2019-03-16T11:48:25.495Z,5.47
2019-03-16T11:50:52.828Z,5.65
2019-03-16T11:53:20.130Z,5.50
2019-03-16T11:55:47.424Z,5.97
2019-03-16T11:58:14.778Z,7.45
2019-03-16T12:00:42.422Z,7.37
2019-03-16T12:03:09.735Z,7.70
2019-03-16T12:05:37.032Z,8.40
2019-03-16T12:08:04.318Z,7.83
2019-03-16T12:10:32.585Z,7.50
2019-03-16T12:12:59.885Z,8.28
2019-03-16T12:15:27.168Z,8.50
2019-03-16T12:17:54.461Z,9.15
2019-03-16T12:20:21.760Z,8.78
2019-03-16T12:22:49.043Z,8.98
2019-03-16T12:25:16.422Z,9.45
2019-03-16T12:27:43.726Z,10.00
2019-03-16T12:30:11.757Z,10.30
2019-03-16T12:32:39.167Z,10.78
2019-03-16T12:35:07.203Z,10.90
2019-03-16T12:37:34.613Z,11.05
2019-03-16T12:40:01.927Z,10.80
2019-03-16T12:42:29.227Z,10.40
2019-03-16T12:44:56.593Z,10.08
2019-03-16T12:47:23.889Z,10.03
2019-03-16T12:49:51.168Z,9.38
2019-03-16T12:52:18.476Z,8.55
2019-03-16T12:54:45.756Z,8.88
2019-03-16T12:57:13.055Z,8.70
2019-03-16T12:59:46.926Z,8.23
2019-03-16T13:02:09.333Z,8.73
2019-03-16T13:04:36.984Z,8.35
2019-03-16T13:07:04.307Z,8.80
2019-03-16T13:09:31.593Z,8.60
2019-03-16T13:11:58.980Z,8.90
2019-03-16T13:14:26.275Z,9.53
2019-03-16T13:16:53.632Z,10.15
2019-03-16T13:19:20.930Z,10.43
2019-03-16T13:21:48.207Z,10.70
2019-03-16T13:24:15.516Z,10.32
2019-03-16T13:26:42.795Z,9.50
2019-03-16T13:29:10.105Z,9.83
2019-03-16T13:31:56.737Z,10.28
2019-03-16T13:34:24.152Z,9.63
2019-03-16T13:36:51.495Z,10.93
2019-03-16T13:39:18.832Z,9.98
2019-03-16T13:41:46.222Z,8.50
2019-03-16T13:44:13.499Z,8.93
2019-03-16T13:46:40.864Z,9.60
2019-03-16T13:49:08.139Z,8.63
2019-03-16T13:51:35.432Z,8.78
2019-03-16T13:54:05.971Z,10.00
2019-03-16T13:56:33.361Z,9.40
2019-03-16T13:59:00.639Z,10.55
2019-03-16T14:01:28.283Z,12.00
2019-03-16T14:03:55.819Z,12.35
2019-03-16T14:06:23.484Z,12.10
2019-03-16T14:08:51.100Z,12.20
2019-03-16T14:11:18.576Z,13.20
2019-03-16T14:13:45.950Z,13.53
2019-03-16T14:16:13.711Z,14.18
2019-03-16T14:18:41.021Z,13.20
2019-03-16T14:21:08.372Z,12.73
2019-03-16T14:23:35.708Z,12.60
2019-03-16T14:26:02.994Z,12.05
2019-03-16T14:28:30.285Z,12.50
2019-03-16T14:30:57.962Z,11.80
2019-03-16T14:33:25.618Z,10.78
2019-03-16T14:35:53.000Z,10.48
2019-03-16T14:38:20.570Z,11.00
2019-03-16T14:40:48.009Z,10.45
2019-03-16T14:43:15.355Z,10.88
2019-03-16T14:45:42.652Z,10.75
2019-03-16T14:48:10.652Z,10.20
2019-03-16T14:50:37.954Z,12.00
2019-03-16T14:53:05.267Z,11.80
2019-03-16T14:55:32.564Z,11.38
2019-03-16T14:57:59.896Z,12.13
2019-03-16T15:00:37.655Z,11.20
2019-03-16T15:02:56.322Z,9.93
2019-03-16T15:05:23.628Z,9.53
2019-03-16T15:07:50.908Z,8.50
2019-03-16T15:10:18.271Z,8.60
2019-03-16T15:12:45.543Z,7.75
2019-03-16T15:15:32.361Z,8.53
2019-03-16T15:17:59.727Z,7.78
2019-03-16T15:20:27.107Z,7.50
2019-03-16T15:22:54.459Z,7.35
2019-03-16T15:25:21.787Z,8.50
2019-03-16T15:27:49.056Z,8.35
2019-03-16T15:33:12.853Z,8.95
2019-03-16T15:35:40.194Z,9.85
2019-03-16T15:38:07.528Z,8.60
2019-03-16T15:40:34.908Z,9.60
2019-03-16T15:43:02.207Z,8.90
2019-03-16T15:48:33.533Z,8.90
2019-03-16T15:51:00.875Z,9.08
2019-03-16T15:53:28.157Z,9.48
2019-03-16T15:55:55.479Z,9.43
2019-03-16T15:58:22.807Z,8.80
2019-03-16T16:01:02.744Z,8.45
2019-03-16T16:03:19.269Z,8.75
2019-03-16T16:05:46.551Z,7.45
2019-03-16T16:08:13.849Z,8.03
2019-03-16T16:10:41.122Z,8.40
2019-03-16T16:13:10.018Z,7.33
2019-03-16T16:15:37.557Z,7.70
2019-03-16T16:18:04.909Z,7.60
2019-03-16T16:20:32.199Z,7.20
2019-03-16T16:22:59.529Z,7.28
2019-03-16T16:25:26.833Z,7.20
2019-03-16T16:27:54.128Z,7.28
2019-03-16T16:30:21.566Z,7.90
2019-03-16T16:32:48.929Z,7.03
2019-03-16T16:35:16.387Z,6.50
2019-03-16T16:37:43.720Z,7.47
2019-03-16T16:40:31.817Z,7.60
2019-03-16T16:42:59.193Z,6.90
2019-03-16T16:45:26.493Z,6.45
2019-03-16T16:47:53.785Z,6.15
2019-03-16T16:50:21.713Z,6.53
2019-03-16T16:52:49.145Z,5.60
2019-03-16T16:55:16.527Z,5.45
2019-03-16T16:57:43.823Z,5.30
2019-03-16T17:00:30.582Z,4.97
2019-03-16T17:02:57.917Z,5.08
2019-03-16T17:05:25.246Z,5.55
2019-03-16T17:07:52.603Z,5.35
2019-03-16T17:10:19.945Z,4.95
2019-03-16T17:12:47.240Z,4.80
2019-03-16T17:18:31.779Z,5.10
2019-03-16T17:20:59.064Z,5.10
2019-03-16T17:23:26.462Z,4.25
2019-03-16T17:25:53.855Z,4.42
2019-03-16T17:28:28.392Z,4.67
2019-03-16T17:30:56.272Z,4.33
2019-03-16T17:33:23.625Z,6.70
2019-03-16T17:35:50.907Z,4.92
2019-03-16T17:38:18.293Z,4.45
2019-03-16T17:40:45.654Z,4.60
2019-03-16T17:43:14.455Z,4.40
2019-03-16T17:45:41.751Z,4.50
2019-03-16T17:48:09.089Z,4.30
2019-03-16T17:50:36.390Z,4.40
2019-03-16T17:53:03.752Z,4.45
2019-03-16T17:55:31.105Z,4.72
2019-03-16T17:57:58.492Z,5.03
2019-03-16T18:00:25.776Z,4.30
2019-03-16T18:02:53.095Z,4.47
2019-03-16T18:05:20.367Z,4.25
2019-03-16T18:07:47.715Z,6.55
2019-03-16T18:10:15.147Z,4.95
2019-03-16T18:12:42.473Z,4.28
2019-03-16T18:15:30.729Z,4.40
2019-03-16T18:20:32.473Z,4.40
2019-03-16T18:22:59.823Z,4.55
2019-03-16T18:25:27.107Z,4.47
2019-03-16T18:27:54.397Z,5.85
2019-03-16T18:33:28.952Z,4.58
2019-03-16T18:35:56.319Z,4.30
2019-03-16T18:38:23.622Z,4.40
2019-03-16T18:40:50.902Z,4.33
2019-03-16T18:43:18.186Z,4.10
2019-03-16T18:45:45.528Z,3.75
2019-03-16T18:48:12.808Z,3.87
2019-03-16T18:50:40.092Z,4.22
2019-03-16T18:53:07.373Z,3.50
2019-03-16T18:55:34.691Z,3.65
2019-03-16T18:58:01.964Z,3.60
2019-03-16T19:00:29.242Z,3.80
2019-03-16T19:02:56.553Z,3.72
2019-03-16T19:05:23.845Z,3.70
2019-03-16T19:07:51.127Z,3.98
2019-03-16T19:10:18.497Z,3.62
2019-03-16T19:12:45.869Z,3.62
2019-03-16T19:18:20.419Z,3.10
2019-03-16T19:20:47.751Z,3.83
2019-03-16T19:23:15.152Z,3.50
2019-03-16T19:25:42.486Z,3.77
2019-03-16T19:28:09.778Z,3.40
2019-03-16T19:30:37.067Z,3.55
2019-03-16T19:33:04.437Z,3.55
2019-03-16T19:35:31.776Z,3.60
2019-03-16T19:37:59.080Z,3.70
2019-03-16T19:40:27.361Z,3.90
2019-03-16T19:42:54.724Z,3.75
2019-03-16T19:45:22.094Z,3.62
2019-03-16T19:47:49.370Z,4.10
2019-03-16T19:50:37.477Z,4.10
2019-03-16T19:53:04.849Z,4.20
2019-03-16T19:55:32.220Z,4.28
2019-03-16T19:57:59.503Z,4.30
2019-03-16T20:00:26.779Z,4.45
2019-03-16T20:02:54.064Z,4.12
2019-03-16T20:05:21.387Z,4.30
2019-03-16T20:07:48.735Z,4.58
2019-03-16T20:13:09.398Z,3.80
2019-03-16T20:15:36.752Z,3.72
2019-03-16T20:18:04.198Z,3.95
2019-03-16T20:20:31.551Z,4.03
2019-03-16T20:22:58.861Z,3.95
2019-03-16T20:25:26.184Z,4.10
2019-03-16T20:27:53.500Z,3.70
2019-03-16T20:30:26.464Z,3.83
2019-03-16T20:33:02.585Z,3.80
2019-03-16T20:35:18.939Z,3.95
2019-03-16T20:37:46.264Z,4.00
2019-03-16T20:45:51.641Z,4.15
2019-03-16T20:48:19.033Z,4.28
2019-03-16T20:50:46.427Z,3.45
2019-03-16T20:56:31.421Z,3.77
2019-03-16T20:58:59.272Z,3.50
2019-03-16T21:01:26.820Z,4.10
2019-03-16T21:03:54.204Z,3.72
2019-03-16T21:58:52.718Z,5.03
2019-03-16T22:01:20.114Z,4.50
2019-03-16T22:03:47.433Z,4.30
2019-03-16T22:06:14.713Z,4.50
2019-03-16T22:08:42.043Z,4.90
2019-03-16T22:14:16.950Z,4.85
2019-03-16T22:16:44.252Z,4.87
2019-03-16T22:19:13.255Z,4.72
2019-03-16T22:21:40.539Z,4.45
2019-03-16T22:24:07.838Z,5.40
2019-03-16T22:26:35.118Z,4.92
2019-03-16T22:29:02.401Z,4.05
2019-03-16T22:31:29.967Z,4.85
2019-03-16T22:33:57.365Z,5.05
2019-03-16T22:36:24.651Z,4.75
2019-03-16T22:38:51.942Z,4.10
2019-03-16T22:41:19.244Z,4.30
2019-03-16T22:43:46.562Z,4.70
2019-03-16T22:46:13.923Z,4.62
2019-03-16T22:48:41.222Z,4.45
2019-03-16T22:51:08.509Z,4.40
2019-03-16T22:53:35.815Z,10.18
2019-03-16T22:56:03.131Z,4.20
2019-03-16T22:58:30.665Z,5.50
2019-03-16T23:00:58.149Z,4.60
2019-03-16T23:03:25.544Z,8.28
2019-03-16T23:05:52.819Z,4.17
2019-03-16T23:08:20.234Z,8.80
2019-03-16T23:10:47.538Z,4.80
2019-03-16T23:13:14.831Z,6.20
2019-03-16T23:15:42.157Z,4.65
2019-03-16T23:18:09.584Z,4.58
2019-03-16T23:20:36.908Z,4.35
2019-03-16T23:23:04.208Z,4.78
2019-03-16T23:25:31.496Z,4.25
2019-03-16T23:27:59.096Z,4.05
2019-03-16T23:30:26.379Z,4.33
2019-03-16T23:32:53.666Z,5.20
2019-03-16T23:35:20.936Z,4.25
2019-03-16T23:37:48.214Z,3.90
